sensor_id;sensor_type;location;lat;lon;timestamp;pressure;altitude;pressure_sealevel;temperature;humidity
64189;BME280;50493;50.970;10.082;2024-03-08T00:01:43;99673.22;;;3.64;70.22
64189;BME280;50493;50.970;10.082;2024-03-08T00:04:10;99671.50;;;3.64;70.36
64189;BME280;50493;50.970;10.082;2024-03-08T00:06:35;99666.31;;;3.64;70.03
64189;BME280;50493;50.970;10.082;2024-03-08T00:09:02;99666.31;;;3.61;70.06
64189;BME280;50493;50.970;10.082;2024-03-08T00:11:27;99669.72;;;3.57;70.24
64189;BME280;50493;50.970;10.082;2024-03-08T00:13:53;99661.00;;;3.50;68.21
64189;BME280;50493;50.970;10.082;2024-03-08T00:16:18;99662.78;;;3.54;70.03
64189;BME280;50493;50.970;10.082;2024-03-08T00:18:44;99662.84;;;3.59;68.06
64189;BME280;50493;50.970;10.082;2024-03-08T00:21:10;99656.66;;;3.48;69.87
64189;BME280;50493;50.970;10.082;2024-03-08T00:23:37;99648.72;;;3.29;71.06
64189;BME280;50493;50.970;10.082;2024-03-08T00:26:03;99648.94;;;3.49;64.63
64189;BME280;50493;50.970;10.082;2024-03-08T00:28:29;99652.28;;;3.40;69.42
64189;BME280;50493;50.970;10.082;2024-03-08T00:30:55;99651.34;;;3.32;68.53
64189;BME280;50493;50.970;10.082;2024-03-08T00:33:21;99647.94;;;3.38;64.67
64189;BME280;50493;50.970;10.082;2024-03-08T00:35:46;99654.63;;;3.19;65.56
64189;BME280;50493;50.970;10.082;2024-03-08T00:38:12;99643.56;;;3.29;68.98
64189;BME280;50493;50.970;10.082;2024-03-08T00:40:38;99647.66;;;3.13;70.05
64189;BME280;50493;50.970;10.082;2024-03-08T00:43:05;99639.91;;;3.12;65.92
64189;BME280;50493;50.970;10.082;2024-03-08T00:45:30;99637.13;;;2.99;56.46
64189;BME280;50493;50.970;10.082;2024-03-08T00:47:55;99643.94;;;2.94;70.94
64189;BME280;50493;50.970;10.082;2024-03-08T00:50:21;99646.47;;;2.91;68.94
64189;BME280;50493;50.970;10.082;2024-03-08T00:52:46;99636.22;;;2.97;70.23
64189;BME280;50493;50.970;10.082;2024-03-08T00:55:11;99636.13;;;2.91;70.12
64189;BME280;50493;50.970;10.082;2024-03-08T00:57:37;99639.66;;;2.96;70.69
64189;BME280;50493;50.970;10.082;2024-03-08T01:00:06;99636.44;;;3.13;62.99
64189;BME280;50493;50.970;10.082;2024-03-08T01:02:37;99639.78;;;3.04;63.37
64189;BME280;50493;50.970;10.082;2024-03-08T01:05:03;99637.81;;;2.87;70.88
64189;BME280;50493;50.970;10.082;2024-03-08T01:07:29;99634.41;;;2.90;70.96
64189;BME280;50493;50.970;10.082;2024-03-08T01:09:55;99635.09;;;2.78;71.67
64189;BME280;50493;50.970;10.082;2024-03-08T01:12:22;99624.94;;;2.89;71.32
64189;BME280;50493;50.970;10.082;2024-03-08T01:14:47;99611.19;;;2.92;71.57
64189;BME280;50493;50.970;10.082;2024-03-08T01:17:14;99612.22;;;3.04;69.76
64189;BME280;50493;50.970;10.082;2024-03-08T01:19:40;99620.78;;;2.99;70.61
64189;BME280;50493;50.970;10.082;2024-03-08T01:22:05;99616.28;;;2.88;71.17
64189;BME280;50493;50.970;10.082;2024-03-08T01:24:30;99612.00;;;2.87;71.50
64189;BME280;50493;50.970;10.082;2024-03-08T01:26:56;99610.00;;;2.69;72.12
64189;BME280;50493;50.970;10.082;2024-03-08T01:29:21;99606.56;;;2.67;72.12
64189;BME280;50493;50.970;10.082;2024-03-08T01:31:47;99604.84;;;2.69;71.84
64189;BME280;50493;50.970;10.082;2024-03-08T01:34:14;99598.94;;;2.75;71.51
64189;BME280;50493;50.970;10.082;2024-03-08T01:36:39;99597.72;;;2.50;72.55
64189;BME280;50493;50.970;10.082;2024-03-08T01:39:05;99592.53;;;2.50;72.10
64189;BME280;50493;50.970;10.082;2024-03-08T01:41:33;99592.38;;;2.37;72.65
64189;BME280;50493;50.970;10.082;2024-03-08T01:43:59;99592.38;;;2.37;72.67
64189;BME280;50493;50.970;10.082;2024-03-08T01:46:24;99594.88;;;2.34;72.63
64189;BME280;50493;50.970;10.082;2024-03-08T01:48:49;99588.31;;;1.98;73.97
64189;BME280;50493;50.970;10.082;2024-03-08T01:51:17;99583.53;;;2.23;72.98
64189;BME280;50493;50.970;10.082;2024-03-08T01:53:45;99577.38;;;2.13;72.08
64189;BME280;50493;50.970;10.082;2024-03-08T01:56:11;99576.31;;;2.00;73.50
64189;BME280;50493;50.970;10.082;2024-03-08T01:58:40;99570.28;;;1.98;73.72
64189;BME280;50493;50.970;10.082;2024-03-08T02:01:07;99564.09;;;1.88;73.66
64189;BME280;50493;50.970;10.082;2024-03-08T02:03:32;99556.66;;;2.09;72.55
64189;BME280;50493;50.970;10.082;2024-03-08T02:05:58;99553.22;;;2.08;71.55
64189;BME280;50493;50.970;10.082;2024-03-08T02:08:27;99551.44;;;2.02;72.48
64189;BME280;50493;50.970;10.082;2024-03-08T02:10:53;99551.63;;;2.15;71.46
64189;BME280;50493;50.970;10.082;2024-03-08T02:13:18;99547.28;;;2.14;71.35
64189;BME280;50493;50.970;10.082;2024-03-08T02:15:51;99547.34;;;2.17;71.41
64189;BME280;50493;50.970;10.082;2024-03-08T02:18:17;99548.75;;;1.96;72.39
64189;BME280;50493;50.970;10.082;2024-03-08T02:20:43;99550.72;;;2.13;70.88
64189;BME280;50493;50.970;10.082;2024-03-08T02:23:09;99545.94;;;1.82;72.27
64189;BME280;50493;50.970;10.082;2024-03-08T02:25:34;99548.53;;;1.84;72.59
64189;BME280;50493;50.970;10.082;2024-03-08T02:28:00;99541.56;;;1.77;72.74
64189;BME280;50493;50.970;10.082;2024-03-08T02:30:26;99541.91;;;1.98;70.99
64189;BME280;50493;50.970;10.082;2024-03-08T02:32:54;99538.28;;;1.87;71.33
64189;BME280;50493;50.970;10.082;2024-03-08T02:35:20;99540.84;;;1.85;71.68
64189;BME280;50493;50.970;10.082;2024-03-08T02:37:47;99531.25;;;1.77;71.88
64189;BME280;50493;50.970;10.082;2024-03-08T02:40:15;99535.41;;;1.68;71.63
64189;BME280;50493;50.970;10.082;2024-03-08T02:42:40;99527.41;;;1.53;73.04
64189;BME280;50493;50.970;10.082;2024-03-08T02:45:06;99527.69;;;1.68;72.32
64189;BME280;50493;50.970;10.082;2024-03-08T02:47:35;99526.88;;;1.71;71.59
64189;BME280;50493;50.970;10.082;2024-03-08T02:50:00;99528.22;;;1.50;72.71
64189;BME280;50493;50.970;10.082;2024-03-08T02:52:26;99529.97;;;1.53;71.25
64189;BME280;50493;50.970;10.082;2024-03-08T02:54:53;99528.72;;;1.29;73.29
64189;BME280;50493;50.970;10.082;2024-03-08T02:57:18;99529.97;;;1.53;71.70
64189;BME280;50493;50.970;10.082;2024-03-08T02:59:44;99540.25;;;1.50;72.64
64189;BME280;50493;50.970;10.082;2024-03-08T03:02:11;99531.69;;;1.51;72.57
64189;BME280;50493;50.970;10.082;2024-03-08T03:04:39;99531.41;;;1.37;72.64
64189;BME280;50493;50.970;10.082;2024-03-08T03:07:04;99531.50;;;1.40;72.46
64189;BME280;50493;50.970;10.082;2024-03-08T03:09:30;99527.59;;;1.64;71.69
64189;BME280;50493;50.970;10.082;2024-03-08T03:11:59;99522.22;;;1.50;71.51
64189;BME280;50493;50.970;10.082;2024-03-08T03:14:24;99519.44;;;1.37;72.51
64189;BME280;50493;50.970;10.082;2024-03-08T03:16:52;99520.25;;;1.36;72.43
64189;BME280;50493;50.970;10.082;2024-03-08T03:19:17;99521.53;;;1.60;71.04
64189;BME280;50493;50.970;10.082;2024-03-08T03:21:43;99504.72;;;1.84;66.72
64189;BME280;50493;50.970;10.082;2024-03-08T03:24:08;99509.19;;;1.42;70.93
64189;BME280;50493;50.970;10.082;2024-03-08T03:26:35;99506.91;;;1.59;71.27
64189;BME280;50493;50.970;10.082;2024-03-08T03:29:03;99507.41;;;1.38;71.77
64189;BME280;50493;50.970;10.082;2024-03-08T03:31:31;99515.28;;;1.46;72.03
64189;BME280;50493;50.970;10.082;2024-03-08T03:33:56;99504.97;;;1.46;71.86
64189;BME280;50493;50.970;10.082;2024-03-08T03:36:26;99494.41;;;1.30;72.92
64189;BME280;50493;50.970;10.082;2024-03-08T03:38:53;99500.47;;;1.35;72.39
64189;BME280;50493;50.970;10.082;2024-03-08T03:41:29;99502.13;;;1.30;72.24
64189;BME280;50493;50.970;10.082;2024-03-08T03:43:54;99497.28;;;1.49;71.00
64189;BME280;50493;50.970;10.082;2024-03-08T03:46:21;99495.50;;;1.45;71.46
64189;BME280;50493;50.970;10.082;2024-03-08T03:48:46;99493.81;;;1.47;71.16
64189;BME280;50493;50.970;10.082;2024-03-08T03:51:12;99498.91;;;1.44;71.21
64189;BME280;50493;50.970;10.082;2024-03-08T03:53:37;99489.34;;;1.36;71.73
64189;BME280;50493;50.970;10.082;2024-03-08T03:56:03;99500.28;;;1.25;72.20
64189;BME280;50493;50.970;10.082;2024-03-08T03:58:32;99492.91;;;1.43;70.79
64189;BME280;50493;50.970;10.082;2024-03-08T04:00:57;99489.47;;;1.43;71.61
64189;BME280;50493;50.970;10.082;2024-03-08T04:03:24;99497.84;;;1.31;70.91
64189;BME280;50493;50.970;10.082;2024-03-08T04:05:49;99487.69;;;1.38;70.95
64189;BME280;50493;50.970;10.082;2024-03-08T04:08:14;99486.81;;;1.39;71.07
64189;BME280;50493;50.970;10.082;2024-03-08T04:10:40;99482.13;;;1.67;61.81
64189;BME280;50493;50.970;10.082;2024-03-08T04:13:07;99485.78;;;1.28;70.93
64189;BME280;50493;50.970;10.082;2024-03-08T04:15:32;99480.25;;;1.57;64.83
64189;BME280;50493;50.970;10.082;2024-03-08T04:17:57;99483.06;;;1.22;71.24
64189;BME280;50493;50.970;10.082;2024-03-08T04:20:26;99481.34;;;1.19;71.45
64189;BME280;50493;50.970;10.082;2024-03-08T04:22:52;99483.78;;;1.12;71.38
64189;BME280;50493;50.970;10.082;2024-03-08T04:25:17;99478.63;;;1.12;71.80
64189;BME280;50493;50.970;10.082;2024-03-08T04:27:42;99486.44;;;1.18;71.20
64189;BME280;50493;50.970;10.082;2024-03-08T04:30:10;99487.31;;;1.17;71.10
64189;BME280;50493;50.970;10.082;2024-03-08T04:32:35;99482.88;;;1.11;71.87
64189;BME280;50493;50.970;10.082;2024-03-08T04:35:01;99482.28;;;1.26;70.15
64189;BME280;50493;50.970;10.082;2024-03-08T04:37:28;99473.91;;;1.36;69.49
64189;BME280;50493;50.970;10.082;2024-03-08T04:39:54;99471.28;;;1.35;67.57
64189;BME280;50493;50.970;10.082;2024-03-08T04:42:20;99467.28;;;1.02;71.18
64189;BME280;50493;50.970;10.082;2024-03-08T04:44:45;99475.31;;;1.19;70.13
64189;BME280;50493;50.970;10.082;2024-03-08T04:47:11;99476.00;;;1.09;71.06
64189;BME280;50493;50.970;10.082;2024-03-08T04:49:36;99475.50;;;1.31;67.83
64189;BME280;50493;50.970;10.082;2024-03-08T04:52:02;99475.00;;;1.51;65.95
64189;BME280;50493;50.970;10.082;2024-03-08T04:54:29;99465.34;;;1.37;60.03
64189;BME280;50493;50.970;10.082;2024-03-08T04:56:54;99470.53;;;1.41;68.25
64189;BME280;50493;50.970;10.082;2024-03-08T04:59:20;99466.91;;;1.29;68.94
64189;BME280;50493;50.970;10.082;2024-03-08T05:01:45;99468.16;;;1.02;70.20
64189;BME280;50493;50.970;10.082;2024-03-08T05:04:10;99466.53;;;1.08;70.17
64189;BME280;50493;50.970;10.082;2024-03-08T05:06:36;99462.38;;;1.16;69.80
64189;BME280;50493;50.970;10.082;2024-03-08T05:09:01;99466.75;;;1.20;65.23
64189;BME280;50493;50.970;10.082;2024-03-08T05:11:39;99461.84;;;1.35;68.51
64189;BME280;50493;50.970;10.082;2024-03-08T05:14:05;99456.03;;;1.47;66.61
64189;BME280;50493;50.970;10.082;2024-03-08T05:16:30;99452.28;;;1.28;68.55
64189;BME280;50493;50.970;10.082;2024-03-08T05:18:55;99454.50;;;1.07;69.84
64189;BME280;50493;50.970;10.082;2024-03-08T05:21:22;99452.75;;;1.05;69.73
64189;BME280;50493;50.970;10.082;2024-03-08T05:23:48;99451.75;;;0.97;68.90
64189;BME280;50493;50.970;10.082;2024-03-08T05:26:15;99460.75;;;1.21;69.00
64189;BME280;50493;50.970;10.082;2024-03-08T05:28:42;99459.22;;;1.32;68.32
64189;BME280;50493;50.970;10.082;2024-03-08T05:31:07;99449.06;;;0.91;69.29
64189;BME280;50493;50.970;10.082;2024-03-08T05:33:33;99446.44;;;0.88;69.59
64189;BME280;50493;50.970;10.082;2024-03-08T05:35:59;99447.47;;;0.98;67.96
64189;BME280;50493;50.970;10.082;2024-03-08T05:38:25;99450.75;;;0.89;69.46
64189;BME280;50493;50.970;10.082;2024-03-08T05:40:51;99442.00;;;0.81;69.84
64189;BME280;50493;50.970;10.082;2024-03-08T05:43:16;99448.00;;;0.81;69.47
64189;BME280;50493;50.970;10.082;2024-03-08T05:45:46;99445.44;;;0.81;69.55
64189;BME280;50493;50.970;10.082;2024-03-08T05:48:11;99450.59;;;0.81;66.78
64189;BME280;50493;50.970;10.082;2024-03-08T05:50:39;99454.31;;;0.97;69.04
64189;BME280;50493;50.970;10.082;2024-03-08T05:53:04;99447.59;;;1.05;66.94
64189;BME280;50493;50.970;10.082;2024-03-08T05:55:32;99449.19;;;0.97;65.12
64189;BME280;50493;50.970;10.082;2024-03-08T05:58:01;99446.03;;;1.14;65.15
64189;BME280;50493;50.970;10.082;2024-03-08T06:00:26;99449.72;;;1.28;65.19
64189;BME280;50493;50.970;10.082;2024-03-08T06:02:53;99448.78;;;0.76;68.52
64189;BME280;50493;50.970;10.082;2024-03-08T06:05:19;99448.16;;;0.89;67.95
64189;BME280;50493;50.970;10.082;2024-03-08T06:07:44;99448.91;;;0.82;64.01
64189;BME280;50493;50.970;10.082;2024-03-08T06:10:10;99451.31;;;0.74;68.47
64189;BME280;50493;50.970;10.082;2024-03-08T06:12:36;99454.53;;;0.19;66.63
64189;BME280;50493;50.970;10.082;2024-03-08T06:15:06;99450.28;;;0.23;68.59
64189;BME280;50493;50.970;10.082;2024-03-08T06:17:31;99449.97;;;0.49;66.66
64189;BME280;50493;50.970;10.082;2024-03-08T06:19:58;99444.50;;;0.76;64.34
64189;BME280;50493;50.970;10.082;2024-03-08T06:22:23;99449.75;;;0.82;65.67
64189;BME280;50493;50.970;10.082;2024-03-08T06:24:49;99453.84;;;0.30;69.95
64189;BME280;50493;50.970;10.082;2024-03-08T06:27:14;99446.38;;;0.41;69.42
64189;BME280;50493;50.970;10.082;2024-03-08T06:29:39;99445.53;;;0.42;69.75
64189;BME280;50493;50.970;10.082;2024-03-08T06:32:05;99449.03;;;0.44;69.25
64189;BME280;50493;50.970;10.082;2024-03-08T06:34:32;99445.91;;;0.59;62.07
64189;BME280;50493;50.970;10.082;2024-03-08T06:36:59;99443.41;;;0.63;67.90
64189;BME280;50493;50.970;10.082;2024-03-08T06:39:25;99440.56;;;0.95;67.19
64189;BME280;50493;50.970;10.082;2024-03-08T06:41:51;99445.06;;;2.20;61.58
64189;BME280;50493;50.970;10.082;2024-03-08T06:44:16;99433.06;;;2.96;52.95
64189;BME280;50493;50.970;10.082;2024-03-08T06:46:41;99441.16;;;2.52;60.50
64189;BME280;50493;50.970;10.082;2024-03-08T06:49:07;99436.28;;;3.69;56.07
64189;BME280;50493;50.970;10.082;2024-03-08T06:51:34;99430.69;;;4.55;52.74
64189;BME280;50493;50.970;10.082;2024-03-08T06:54:01;99435.94;;;4.67;52.72
64189;BME280;50493;50.970;10.082;2024-03-08T06:56:26;99434.25;;;4.94;52.11
64189;BME280;50493;50.970;10.082;2024-03-08T06:58:52;99435.78;;;4.30;53.57
64189;BME280;50493;50.970;10.082;2024-03-08T07:01:17;99445.06;;;3.93;55.18
64189;BME280;50493;50.970;10.082;2024-03-08T07:03:42;99440.50;;;3.56;51.68
64189;BME280;50493;50.970;10.082;2024-03-08T07:06:09;99438.31;;;4.18;54.37
64189;BME280;50493;50.970;10.082;2024-03-08T07:08:34;99437.34;;;4.00;55.01
64189;BME280;50493;50.970;10.082;2024-03-08T07:11:01;99434.16;;;4.60;50.91
64189;BME280;50493;50.970;10.082;2024-03-08T07:13:27;99435.66;;;4.12;53.60
64189;BME280;50493;50.970;10.082;2024-03-08T07:15:55;99435.66;;;4.05;52.12
64189;BME280;50493;50.970;10.082;2024-03-08T07:18:21;99429.28;;;3.51;51.62
64189;BME280;50493;50.970;10.082;2024-03-08T07:20:47;99432.81;;;3.65;55.79
64189;BME280;50493;50.970;10.082;2024-03-08T07:23:12;99425.06;;;3.68;53.41
64189;BME280;50493;50.970;10.082;2024-03-08T07:25:58;99428.81;;;4.15;51.07
64189;BME280;50493;50.970;10.082;2024-03-08T07:28:24;99420.34;;;4.49;50.49
64189;BME280;50493;50.970;10.082;2024-03-08T07:30:50;99423.63;;;4.11;50.71
64189;BME280;50493;50.970;10.082;2024-03-08T07:33:26;99422.78;;;4.18;54.30
64189;BME280;50493;50.970;10.082;2024-03-08T07:35:52;99429.47;;;3.82;54.44
64189;BME280;50493;50.970;10.082;2024-03-08T07:38:17;99425.41;;;3.02;53.10
64189;BME280;50493;50.970;10.082;2024-03-08T07:40:46;99414.00;;;3.91;54.07
64189;BME280;50493;50.970;10.082;2024-03-08T07:43:13;99412.19;;;3.70;55.04
64189;BME280;50493;50.970;10.082;2024-03-08T07:45:41;99407.06;;;3.82;51.90
64189;BME280;50493;50.970;10.082;2024-03-08T07:48:07;99403.03;;;4.34;51.14
64189;BME280;50493;50.970;10.082;2024-03-08T07:50:36;99409.81;;;4.12;51.98
64189;BME280;50493;50.970;10.082;2024-03-08T07:53:02;99403.19;;;3.20;57.30
64189;BME280;50493;50.970;10.082;2024-03-08T07:55:28;99404.13;;;3.34;56.73
64189;BME280;50493;50.970;10.082;2024-03-08T07:57:56;99400.94;;;3.65;56.79
64189;BME280;50493;50.970;10.082;2024-03-08T08:00:21;99398.50;;;3.89;56.66
64189;BME280;50493;50.970;10.082;2024-03-08T08:02:48;99398.78;;;4.54;52.36
64189;BME280;50493;50.970;10.082;2024-03-08T08:05:14;99400.25;;;3.95;52.87
64189;BME280;50493;50.970;10.082;2024-03-08T08:07:40;99389.31;;;4.70;52.77
64189;BME280;50493;50.970;10.082;2024-03-08T08:10:09;99388.50;;;4.91;51.80
64189;BME280;50493;50.970;10.082;2024-03-08T08:12:40;99378.91;;;4.55;54.04
64189;BME280;50493;50.970;10.082;2024-03-08T08:15:07;99380.66;;;4.48;55.00
64189;BME280;50493;50.970;10.082;2024-03-08T08:17:33;99379.72;;;4.37;54.83
64189;BME280;50493;50.970;10.082;2024-03-08T08:20:01;99379.84;;;4.75;50.72
64189;BME280;50493;50.970;10.082;2024-03-08T08:22:30;99375.53;;;4.84;52.04
64189;BME280;50493;50.970;10.082;2024-03-08T08:24:55;99374.69;;;5.02;48.22
64189;BME280;50493;50.970;10.082;2024-03-08T08:27:21;99374.63;;;4.72;51.74
64189;BME280;50493;50.970;10.082;2024-03-08T08:29:46;99372.13;;;5.50;50.98
64189;BME280;50493;50.970;10.082;2024-03-08T08:32:11;99368.69;;;5.54;46.03
64189;BME280;50493;50.970;10.082;2024-03-08T08:34:36;99370.34;;;5.73;46.81
64189;BME280;50493;50.970;10.082;2024-03-08T08:37:03;99365.19;;;5.55;51.52
64189;BME280;50493;50.970;10.082;2024-03-08T08:39:29;99368.66;;;5.23;54.03
64189;BME280;50493;50.970;10.082;2024-03-08T08:41:54;99353.09;;;5.51;52.05
64189;BME280;50493;50.970;10.082;2024-03-08T08:44:19;99353.06;;;5.71;51.04
64189;BME280;50493;50.970;10.082;2024-03-08T08:46:45;99349.59;;;5.80;51.01
64189;BME280;50493;50.970;10.082;2024-03-08T08:49:10;99342.75;;;5.48;52.02
64189;BME280;50493;50.970;10.082;2024-03-08T08:51:39;99347.81;;;5.85;49.45
64189;BME280;50493;50.970;10.082;2024-03-08T08:54:06;99341.03;;;5.28;53.23
64189;BME280;50493;50.970;10.082;2024-03-08T08:56:31;99339.22;;;5.80;47.98
64189;BME280;50493;50.970;10.082;2024-03-08T08:58:57;99331.47;;;5.55;53.04
64189;BME280;50493;50.970;10.082;2024-03-08T09:01:23;99329.72;;;5.71;50.29
64189;BME280;50493;50.970;10.082;2024-03-08T09:03:48;99326.28;;;5.63;46.62
64189;BME280;50493;50.970;10.082;2024-03-08T09:06:15;99317.66;;;5.53;48.18
64189;BME280;50493;50.970;10.082;2024-03-08T09:08:41;99323.72;;;5.58;52.43
64189;BME280;50493;50.970;10.082;2024-03-08T09:11:08;99317.66;;;5.33;48.98
64189;BME280;50493;50.970;10.082;2024-03-08T09:13:33;99311.66;;;4.80;49.10
64189;BME280;50493;50.970;10.082;2024-03-08T09:15:58;99314.22;;;5.07;48.70
64189;BME280;50493;50.970;10.082;2024-03-08T09:18:24;99302.97;;;5.30;50.95
64189;BME280;50493;50.970;10.082;2024-03-08T09:20:49;99309.94;;;5.06;53.67
64189;BME280;50493;50.970;10.082;2024-03-08T09:23:15;99302.13;;;5.33;55.42
64189;BME280;50493;50.970;10.082;2024-03-08T09:25:42;99297.78;;;5.55;54.02
64189;BME280;50493;50.970;10.082;2024-03-08T09:28:08;99289.03;;;5.81;48.95
64189;BME280;50493;50.970;10.082;2024-03-08T09:30:34;99289.13;;;5.59;46.66
64189;BME280;50493;50.970;10.082;2024-03-08T09:33:00;99296.09;;;4.76;52.93
64189;BME280;50493;50.970;10.082;2024-03-08T09:35:25;99286.63;;;4.85;52.99
64189;BME280;50493;50.970;10.082;2024-03-08T09:37:51;99283.16;;;4.67;49.99
64189;BME280;50493;50.970;10.082;2024-03-08T09:40:16;99262.34;;;5.43;48.67
64189;BME280;50493;50.970;10.082;2024-03-08T09:42:45;99258.91;;;5.35;53.17
64189;BME280;50493;50.970;10.082;2024-03-08T09:45:12;99259.75;;;5.52;48.18
64189;BME280;50493;50.970;10.082;2024-03-08T09:47:39;99245.16;;;4.99;54.40
64189;BME280;50493;50.970;10.082;2024-03-08T09:50:06;99252.88;;;5.16;51.57
64189;BME280;50493;50.970;10.082;2024-03-08T09:52:34;99241.69;;;5.07;55.77
64189;BME280;50493;50.970;10.082;2024-03-08T09:55:00;99232.09;;;5.56;50.68
64189;BME280;50493;50.970;10.082;2024-03-08T09:57:26;99229.41;;;5.76;49.18
64189;BME280;50493;50.970;10.082;2024-03-08T09:59:52;99232.97;;;5.39;50.94
64189;BME280;50493;50.970;10.082;2024-03-08T10:02:19;99225.06;;;5.83;47.52
64189;BME280;50493;50.970;10.082;2024-03-08T10:04:46;99213.63;;;6.16;48.86
64189;BME280;50493;50.970;10.082;2024-03-08T10:07:12;99216.56;;;5.51;51.20
64189;BME280;50493;50.970;10.082;2024-03-08T10:09:37;99225.84;;;5.96;48.42
64189;BME280;50493;50.970;10.082;2024-03-08T10:12:04;99223.59;;;4.92;49.91
64189;BME280;50493;50.970;10.082;2024-03-08T10:14:30;99210.59;;;5.11;50.29
64189;BME280;50493;50.970;10.082;2024-03-08T10:16:57;99207.78;;;5.79;53.44
64189;BME280;50493;50.970;10.082;2024-03-08T10:19:26;99202.28;;;6.28;55.91
64189;BME280;50493;50.970;10.082;2024-03-08T10:21:52;99187.47;;;6.42;52.32
64189;BME280;50493;50.970;10.082;2024-03-08T10:24:22;99195.09;;;6.64;49.99
64189;BME280;50493;50.970;10.082;2024-03-08T10:26:51;99199.59;;;6.43;50.42
64189;BME280;50493;50.970;10.082;2024-03-08T10:29:18;99199.50;;;6.56;47.89
64189;BME280;50493;50.970;10.082;2024-03-08T10:31:43;99201.06;;;6.77;51.96
64189;BME280;50493;50.970;10.082;2024-03-08T10:34:10;99189.56;;;7.00;49.68
64189;BME280;50493;50.970;10.082;2024-03-08T10:36:36;99193.13;;;6.89;45.64
64189;BME280;50493;50.970;10.082;2024-03-08T10:39:07;99187.69;;;6.12;50.27
64189;BME280;50493;50.970;10.082;2024-03-08T10:41:37;99178.78;;;6.51;50.30
64189;BME280;50493;50.970;10.082;2024-03-08T10:44:10;99187.66;;;6.18;46.39
64189;BME280;50493;50.970;10.082;2024-03-08T10:46:54;99178.66;;;6.60;50.50
64189;BME280;50493;50.970;10.082;2024-03-08T10:49:25;99170.09;;;7.39;54.74
64189;BME280;50493;50.970;10.082;2024-03-08T10:51:52;99181.13;;;6.77;46.55
64189;BME280;50493;50.970;10.082;2024-03-08T10:54:18;99171.72;;;6.63;52.95
64189;BME280;50493;50.970;10.082;2024-03-08T10:56:47;99176.63;;;5.82;47.22
64189;BME280;50493;50.970;10.082;2024-03-08T10:59:14;99172.06;;;6.25;53.28
64189;BME280;50493;50.970;10.082;2024-03-08T11:01:39;99187.75;;;6.07;47.74
64189;BME280;50493;50.970;10.082;2024-03-08T11:04:05;99171.69;;;5.17;50.40
64189;BME280;50493;50.970;10.082;2024-03-08T11:06:42;99166.34;;;5.63;48.89
64189;BME280;50493;50.970;10.082;2024-03-08T11:11:51;99162.84;;;5.80;50.04
64189;BME280;50493;50.970;10.082;2024-03-08T11:14:44;99163.00;;;5.35;48.52
64189;BME280;50493;50.970;10.082;2024-03-08T11:17:13;99140.47;;;5.57;51.98
64189;BME280;50493;50.970;10.082;2024-03-08T11:19:45;99142.84;;;5.97;50.03
64189;BME280;50493;50.970;10.082;2024-03-08T11:22:20;99136.00;;;6.85;54.10
64189;BME280;50493;50.970;10.082;2024-03-08T11:24:50;99133.28;;;6.99;54.79
64189;BME280;50493;50.970;10.082;2024-03-08T11:27:15;99124.91;;;7.47;46.10
64189;BME280;50493;50.970;10.082;2024-03-08T11:29:41;99121.59;;;7.37;46.76
64189;BME280;50493;50.970;10.082;2024-03-08T11:32:11;99112.53;;;6.92;52.61
64189;BME280;50493;50.970;10.082;2024-03-08T11:34:39;99109.19;;;7.56;46.32
64189;BME280;50493;50.970;10.082;2024-03-08T11:37:05;99117.69;;;7.70;44.22
64189;BME280;50493;50.970;10.082;2024-03-08T11:39:35;99103.09;;;7.58;43.36
64189;BME280;50493;50.970;10.082;2024-03-08T11:42:04;99098.34;;;7.87;45.65
64189;BME280;50493;50.970;10.082;2024-03-08T11:44:29;99098.97;;;8.03;42.88
64189;BME280;50493;50.970;10.082;2024-03-08T11:46:56;99106.56;;;8.17;44.83
64189;BME280;50493;50.970;10.082;2024-03-08T11:49:22;99093.94;;;8.45;41.75
64189;BME280;50493;50.970;10.082;2024-03-08T11:51:51;99090.31;;;8.01;42.21
64189;BME280;50493;50.970;10.082;2024-03-08T11:54:17;99082.94;;;7.71;52.32
64189;BME280;50493;50.970;10.082;2024-03-08T11:56:42;99081.09;;;7.81;42.60
64189;BME280;50493;50.970;10.082;2024-03-08T11:59:12;99084.44;;;7.88;43.07
64189;BME280;50493;50.970;10.082;2024-03-08T12:01:37;99084.47;;;7.86;45.38
64189;BME280;50493;50.970;10.082;2024-03-08T12:04:03;99072.59;;;8.71;45.61
64189;BME280;50493;50.970;10.082;2024-03-08T12:06:36;99070.34;;;8.01;47.87
64189;BME280;50493;50.970;10.082;2024-03-08T12:09:04;99063.97;;;8.69;44.31
64189;BME280;50493;50.970;10.082;2024-03-08T12:11:30;99059.53;;;8.26;41.18
64189;BME280;50493;50.970;10.082;2024-03-08T12:13:56;99059.19;;;7.93;46.11
64189;BME280;50493;50.970;10.082;2024-03-08T12:16:24;99040.00;;;8.95;43.02
64189;BME280;50493;50.970;10.082;2024-03-08T12:18:51;99044.69;;;9.20;46.94
64189;BME280;50493;50.970;10.082;2024-03-08T12:21:18;99046.56;;;8.24;48.35
64189;BME280;50493;50.970;10.082;2024-03-08T12:23:46;99034.38;;;7.73;50.64
64189;BME280;50493;50.970;10.082;2024-03-08T12:26:16;99032.25;;;8.91;52.76
64189;BME280;50493;50.970;10.082;2024-03-08T12:28:43;99041.47;;;8.65;54.11
64189;BME280;50493;50.970;10.082;2024-03-08T12:31:13;99034.09;;;8.40;44.28
64189;BME280;50493;50.970;10.082;2024-03-08T12:33:49;99034.78;;;8.94;43.28
64189;BME280;50493;50.970;10.082;2024-03-08T12:36:15;99036.13;;;9.15;41.76
64189;BME280;50493;50.970;10.082;2024-03-08T12:38:43;99025.88;;;9.46;41.95
64189;BME280;50493;50.970;10.082;2024-03-08T12:41:09;99028.66;;;8.98;53.84
64189;BME280;50493;50.970;10.082;2024-03-08T12:43:34;99017.88;;;9.53;55.23
64189;BME280;50493;50.970;10.082;2024-03-08T12:45:59;99016.72;;;8.85;41.84
64189;BME280;50493;50.970;10.082;2024-03-08T12:48:25;99009.13;;;8.30;42.77
64189;BME280;50493;50.970;10.082;2024-03-08T12:50:52;99002.00;;;9.26;56.92
64189;BME280;50493;50.970;10.082;2024-03-08T12:53:18;98994.97;;;10.00;52.39
64189;BME280;50493;50.970;10.082;2024-03-08T12:55:44;98994.97;;;10.00;55.69
64189;BME280;50493;50.970;10.082;2024-03-08T12:58:09;98990.88;;;9.91;43.86
64189;BME280;50493;50.970;10.082;2024-03-08T13:00:35;98985.47;;;9.25;42.12